Barbara Foss — WYL4318 — position and weather

sailwx.info

Track history (hours):
 
Tides and Currents Weather Stations Pressure Air Temp Water Temp Dewpoint Dewpoint Depression Visibility Wind Speed Wind Dir Waves Ship Positions

Barbara Foss

More information available from US FCC via Universal Licensing System and Coast Guard Vessel Documentation Center.

Last reported at 2014-Jul-28 17:25 UTC. Time now 2014-Jul-29 08:44 UTC.
Position N 58°16' W 136°01'.

Length 39 m; draft 5.5 m.

Type: Towing. MMSI: 366932130.

Date/timePositionNaut miles runAvg speedWind from/ knotsBaromVisibWave heightAir tempDewpointWater temp
2014-Jul-28 17:25N 58°16' W 136°01'  
2014-Jul-26 03:29N 54°16' W 130°22'4 0.7
2014-Jul-25 22:34N 54°19' W 130°19'1 0.6
2014-Jul-25 21:33N 54°19' W 130°20'1 1.0
2014-Jul-25 20:33N 54°18' W 130°21'0 0.0
2014-Jul-25 19:34N 54°18' W 130°21'0 0.0
2014-Jul-25 18:34N 54°18' W 130°21'0 0.0
2014-Jul-25 17:33N 54°18' W 130°21'0 0.0
2014-Jul-25 16:34N 54°18' W 130°21'0 0.0
2014-Jul-25 15:33N 54°18' W 130°21'2 1.8
2014-Jul-25 14:33N 54°16' W 130°22'3 3.3
2014-Jul-25 13:33N 54°13' W 130°24'4 4.2
2014-Jul-25 12:34N 54°15' W 130°30'4 4.3
2014-Jul-25 11:33N 54°19' W 130°34'4 4.4
2014-Jul-25 10:33N 54°23' W 130°37'4 4.4
2014-Jul-25 09:33N 54°27' W 130°39'4 4.4
2014-Jul-25 08:33N 54°31' W 130°42'5 4.5
2014-Jul-25 07:30N 54°36' W 130°44'  
Track history (hours):
 
Tides and Currents Weather Stations Pressure Air Temp Water Temp Dewpoint Dewpoint Depression Visibility Wind Speed Wind Dir Waves Ship Positions

Barbara Foss

More information available from US FCC via Universal Licensing System and Coast Guard Vessel Documentation Center.

Last reported at 2014-Jul-28 17:25 UTC. Time now 2014-Jul-29 08:44 UTC.
Position N 58°16' W 136°01'.

Length 39 m; draft 5.5 m.

Type: Towing. MMSI: 366932130.

Date/timePositionNaut miles runAvg speedWind from/ knotsBaromVisibWave heightAir tempDewpointWater temp
2014-Jul-28 17:25N 58°16' W 136°01'  
2014-Jul-26 03:29N 54°16' W 130°22'4 0.7
2014-Jul-25 22:34N 54°19' W 130°19'1 0.6
2014-Jul-25 21:33N 54°19' W 130°20'1 1.0
2014-Jul-25 20:33N 54°18' W 130°21'0 0.0
2014-Jul-25 19:34N 54°18' W 130°21'0 0.0
2014-Jul-25 18:34N 54°18' W 130°21'0 0.0
2014-Jul-25 17:33N 54°18' W 130°21'0 0.0
2014-Jul-25 16:34N 54°18' W 130°21'0 0.0
2014-Jul-25 15:33N 54°18' W 130°21'2 1.8
2014-Jul-25 14:33N 54°16' W 130°22'3 3.3
2014-Jul-25 13:33N 54°13' W 130°24'4 4.2
2014-Jul-25 12:34N 54°15' W 130°30'4 4.3
2014-Jul-25 11:33N 54°19' W 130°34'4 4.4
2014-Jul-25 10:33N 54°23' W 130°37'4 4.4
2014-Jul-25 09:33N 54°27' W 130°39'4 4.4
2014-Jul-25 08:33N 54°31' W 130°42'5 4.5
2014-Jul-25 07:30N 54°36' W 130°44'  

Dump ship's entire track history